createdAt,value
2018-05-12T00:01:55.172Z,5.03
2018-05-12T00:04:27.671Z,5.00
2018-05-12T00:07:00.193Z,4.43
2018-05-12T00:09:32.711Z,5.47
2018-05-12T00:12:05.266Z,5.30
2018-05-12T00:14:37.772Z,4.90
2018-05-12T00:17:10.299Z,5.78
2018-05-12T00:19:42.799Z,5.57
2018-05-12T00:22:15.315Z,5.05
2018-05-12T00:24:47.848Z,5.22
2018-05-12T00:27:20.350Z,6.62
2018-05-12T00:29:52.876Z,5.60
2018-05-12T00:32:25.376Z,5.97
2018-05-12T00:34:57.911Z,5.93
2018-05-12T00:37:30.403Z,5.45
2018-05-12T00:40:03.201Z,5.60
2018-05-12T00:42:35.699Z,5.57
2018-05-12T00:45:08.211Z,5.45
2018-05-12T00:47:40.716Z,5.68
2018-05-12T00:50:13.231Z,5.35
2018-05-12T00:52:45.737Z,6.30
2018-05-12T00:55:18.265Z,6.47
2018-05-12T00:57:50.774Z,6.45
2018-05-12T01:00:23.303Z,5.45
2018-05-12T01:02:55.801Z,5.43
2018-05-12T01:05:28.320Z,5.25
2018-05-12T01:08:00.816Z,5.53
2018-05-12T01:10:33.896Z,6.57
2018-05-12T01:13:06.397Z,5.87
2018-05-12T01:15:38.915Z,6.50
2018-05-12T01:18:11.418Z,5.72
2018-05-12T01:20:43.943Z,4.97
2018-05-12T01:23:16.458Z,5.62
2018-05-12T01:25:48.977Z,6.15
2018-05-12T01:28:21.475Z,5.47
2018-05-12T01:30:54.001Z,6.12
2018-05-12T01:33:26.553Z,5.95
2018-05-12T01:35:59.091Z,7.57
2018-05-12T01:38:31.583Z,6.30
2018-05-12T01:41:04.451Z,6.45
2018-05-12T01:43:36.946Z,6.93
2018-05-12T01:46:09.478Z,5.95
2018-05-12T01:48:41.975Z,6.75
2018-05-12T01:51:14.488Z,6.40
2018-05-12T01:53:46.983Z,6.35
2018-05-12T01:56:19.507Z,5.87
2018-05-12T01:58:52.025Z,6.12
2018-05-12T02:01:24.547Z,6.97
2018-05-12T02:03:57.047Z,5.85
2018-05-12T02:06:29.572Z,6.12
2018-05-12T02:09:02.072Z,6.07
2018-05-12T02:11:35.412Z,6.17
2018-05-12T02:14:07.916Z,5.28
2018-05-12T02:16:40.426Z,6.20
2018-05-12T02:19:12.927Z,5.65
2018-05-12T02:21:45.458Z,6.03
2018-05-12T02:24:17.954Z,5.93
2018-05-12T02:26:50.476Z,6.10
2018-05-12T02:29:22.971Z,6.80
2018-05-12T02:31:55.488Z,7.43
2018-05-12T02:34:27.981Z,6.50
2018-05-12T02:37:00.503Z,6.28
2018-05-12T02:39:33.115Z,6.43
2018-05-12T02:42:05.627Z,6.37
2018-05-12T02:44:38.132Z,6.60
2018-05-12T02:47:10.653Z,6.83
2018-05-12T02:49:43.162Z,6.70
2018-05-12T02:52:15.679Z,6.63
2018-05-12T02:54:48.187Z,7.33
2018-05-12T02:57:20.703Z,7.65
2018-05-12T02:59:53.213Z,7.40
2018-05-12T03:02:25.744Z,6.90
2018-05-12T03:04:58.236Z,6.60
2018-05-12T03:07:30.747Z,7.20
2018-05-12T03:10:03.507Z,7.17
2018-05-12T03:12:36.032Z,7.13
2018-05-12T03:15:08.536Z,7.87
2018-05-12T03:17:41.052Z,8.38
2018-05-12T03:20:13.557Z,7.90
2018-05-12T03:22:46.068Z,7.00
2018-05-12T03:25:18.564Z,7.62
2018-05-12T03:27:51.070Z,7.40
2018-05-12T03:30:23.574Z,7.97
2018-05-12T03:32:56.128Z,8.03
2018-05-12T03:35:28.620Z,7.40
2018-05-12T03:38:01.135Z,7.25
2018-05-12T03:40:34.527Z,7.60
2018-05-12T03:43:07.075Z,8.73
2018-05-12T03:45:39.572Z,7.80
2018-05-12T03:48:12.092Z,7.90
2018-05-12T03:50:44.588Z,8.17
2018-05-12T03:53:17.117Z,8.60
2018-05-12T03:55:49.627Z,8.52
2018-05-12T03:58:22.158Z,7.90
2018-05-12T04:00:54.667Z,9.30
2018-05-12T04:03:27.183Z,8.68
2018-05-12T04:06:11.612Z,9.05
2018-05-12T04:08:55.954Z,8.82
2018-05-12T04:11:40.409Z,8.70
2018-05-12T04:14:13.741Z,8.88
2018-05-12T04:16:46.253Z,8.13
2018-05-12T04:19:18.753Z,8.60
2018-05-12T04:21:51.267Z,8.57
2018-05-12T04:24:23.779Z,11.45
2018-05-12T04:26:56.296Z,9.27
2018-05-12T04:29:28.794Z,9.70
2018-05-12T04:32:01.320Z,10.48
2018-05-12T04:34:34.291Z,10.67
2018-05-12T04:37:06.831Z,11.80
2018-05-12T04:39:39.331Z,11.52
2018-05-12T04:42:11.856Z,11.25
2018-05-12T04:44:44.367Z,11.27
2018-05-12T04:47:16.895Z,13.13
2018-05-12T04:49:49.432Z,13.25
2018-05-12T04:52:21.960Z,12.77
2018-05-12T04:54:54.619Z,12.30
2018-05-12T04:57:27.132Z,12.50
2018-05-12T04:59:59.634Z,12.45
2018-05-12T05:02:32.159Z,12.63
2018-05-12T05:05:05.495Z,11.02
2018-05-12T05:07:38.027Z,10.55
2018-05-12T05:10:10.599Z,12.23
2018-05-12T05:12:43.128Z,12.75
2018-05-12T05:15:16.574Z,13.18
2018-05-12T05:17:49.108Z,14.13
2018-05-12T05:20:22.594Z,13.15
2018-05-12T05:22:55.127Z,11.60
2018-05-12T05:25:27.640Z,12.20
2018-05-12T05:28:00.186Z,14.15
2018-05-12T05:30:32.688Z,14.00
2018-05-12T05:33:05.835Z,13.73
2018-05-12T05:35:38.340Z,13.85
2018-05-12T05:38:10.868Z,13.65
2018-05-12T05:40:43.371Z,13.98
2018-05-12T05:43:15.887Z,15.15
2018-05-12T05:45:48.396Z,15.15
2018-05-12T05:48:20.920Z,17.12
2018-05-12T05:50:53.423Z,16.62
2018-05-12T05:53:25.956Z,16.52
2018-05-12T05:55:58.467Z,16.48
2018-05-12T05:58:31.034Z,17.65
2018-05-12T06:01:04.283Z,17.00
2018-05-12T06:03:36.819Z,17.52
2018-05-12T06:06:09.329Z,18.33
2018-05-12T06:08:41.859Z,18.60
2018-05-12T06:11:14.384Z,19.50
2018-05-12T06:13:46.922Z,19.08
2018-05-12T06:16:19.424Z,21.37
2018-05-12T06:18:51.957Z,18.52
2018-05-12T06:21:24.854Z,17.62
2018-05-12T06:23:57.992Z,21.08
2018-05-12T06:26:31.711Z,18.98
2018-05-12T06:29:04.445Z,19.80
2018-05-12T06:31:37.403Z,21.17
2018-05-12T06:34:10.181Z,21.75
2018-05-12T06:36:42.792Z,20.15
2018-05-12T06:39:15.814Z,20.88
2018-05-12T06:41:48.604Z,20.73
2018-05-12T06:44:22.307Z,20.20
2018-05-12T06:46:55.219Z,19.10
2018-05-12T06:49:27.787Z,19.98
2018-05-12T06:52:00.304Z,20.20
2018-05-12T06:54:32.827Z,20.25
2018-05-12T06:57:05.761Z,19.95
2018-05-12T06:59:38.355Z,19.60
2018-05-12T07:02:10.921Z,19.15
2018-05-12T07:04:43.968Z,18.35
2018-05-12T07:07:16.768Z,17.30
2018-05-12T07:09:49.917Z,17.73
2018-05-12T07:12:22.962Z,16.73
2018-05-12T07:14:55.859Z,15.75
2018-05-12T07:17:28.859Z,15.73
2018-05-12T07:20:02.055Z,16.35
2018-05-12T07:22:35.137Z,16.33
2018-05-12T07:25:07.731Z,15.57
2018-05-12T07:27:40.235Z,15.43
2018-05-12T07:30:12.750Z,16.42
2018-05-12T07:32:45.274Z,15.85
2018-05-12T07:35:17.804Z,13.98
2018-05-12T07:37:50.991Z,16.00
2018-05-12T07:40:23.495Z,15.73
2018-05-12T07:42:56.020Z,15.13
2018-05-12T07:45:28.582Z,15.48
2018-05-12T07:48:01.080Z,14.90
2018-05-12T07:50:33.644Z,15.93
2018-05-12T07:53:06.171Z,14.73
2018-05-12T07:55:38.683Z,14.95
2018-05-12T07:58:11.235Z,15.25
2018-05-12T08:00:43.755Z,13.85
2018-05-12T08:03:16.286Z,14.02
2018-05-12T08:05:48.789Z,14.32
2018-05-12T08:08:22.131Z,14.18
2018-05-12T08:10:54.645Z,13.02
2018-05-12T08:13:27.175Z,15.50
2018-05-12T08:15:59.697Z,11.90
2018-05-12T08:18:32.223Z,12.43
2018-05-12T08:21:04.732Z,11.52
2018-05-12T08:23:37.251Z,10.68
2018-05-12T08:26:09.871Z,12.37
2018-05-12T08:28:42.352Z,11.05
2018-05-12T08:31:14.861Z,11.30
2018-05-12T08:33:47.379Z,11.15
2018-05-12T08:36:19.924Z,10.38
2018-05-12T08:38:52.448Z,11.07
2018-05-12T08:41:24.963Z,10.13
2018-05-12T08:43:57.495Z,12.35
2018-05-12T08:46:30.021Z,10.38
2018-05-12T08:49:02.556Z,10.48
2018-05-12T08:51:35.067Z,10.80
2018-05-12T08:54:07.588Z,10.05
2018-05-12T08:56:40.117Z,11.75
2018-05-12T08:59:12.635Z,10.43
2018-05-12T09:01:45.146Z,9.93
2018-05-12T09:04:17.686Z,9.48
2018-05-12T09:06:50.922Z,10.45
2018-05-12T09:09:23.454Z,10.45
2018-05-12T09:11:55.965Z,12.05
2018-05-12T09:14:28.491Z,9.65
2018-05-12T09:17:00.996Z,14.38
2018-05-12T09:19:33.516Z,8.85
2018-05-12T09:22:06.017Z,9.38
2018-05-12T09:24:38.546Z,10.93
2018-05-12T09:27:11.063Z,10.68
2018-05-12T09:29:43.586Z,9.70
2018-05-12T09:32:16.083Z,10.23
2018-05-12T09:34:48.620Z,10.48
2018-05-12T09:37:21.907Z,9.85
2018-05-12T09:39:54.391Z,12.82
2018-05-12T09:42:26.997Z,10.70
2018-05-12T09:44:59.455Z,9.27
2018-05-12T09:47:32.052Z,9.13
2018-05-12T09:50:04.521Z,7.32
2018-05-12T09:52:37.025Z,6.60
2018-05-12T09:55:09.557Z,6.60
2018-05-12T09:57:42.051Z,5.95
2018-05-12T10:00:16.319Z,10.00
2018-05-12T10:02:48.819Z,7.45
2018-05-12T10:05:21.969Z,8.60
2018-05-12T10:07:54.476Z,10.35
2018-05-12T10:10:26.991Z,9.38
2018-05-12T10:12:59.499Z,12.98
2018-05-12T10:15:32.113Z,8.88
2018-05-12T10:18:04.552Z,7.62
2018-05-12T10:20:37.079Z,7.05
2018-05-12T10:23:09.582Z,8.82
2018-05-12T10:25:42.096Z,6.87
2018-05-12T10:28:14.600Z,6.87
2018-05-12T10:30:47.131Z,22.42
2018-05-12T10:33:21.313Z,14.85
2018-05-12T10:35:53.836Z,8.07
2018-05-12T10:42:35.612Z,9.50
2018-05-12T10:45:08.130Z,7.05
2018-05-12T10:47:40.640Z,6.20
2018-05-12T10:50:13.164Z,8.32
2018-05-12T10:52:45.660Z,7.10
2018-05-12T10:55:18.177Z,7.20
2018-05-12T10:57:50.680Z,8.52
2018-05-12T11:00:23.199Z,8.48
2018-05-12T11:02:55.700Z,8.45
2018-05-12T11:05:28.209Z,8.48
2018-05-12T11:08:00.709Z,7.65
2018-05-12T11:10:33.231Z,8.23
2018-05-12T11:13:05.732Z,8.93
2018-05-12T11:15:38.256Z,7.85
2018-05-12T11:18:10.752Z,6.65
2018-05-12T11:20:43.281Z,7.80
2018-05-12T11:23:15.804Z,7.35
2018-05-12T11:25:48.326Z,7.10
2018-05-12T11:28:20.829Z,8.50
2018-05-12T11:30:53.343Z,9.10
2018-05-12T11:33:25.846Z,8.02
2018-05-12T11:35:58.374Z,8.07
2018-05-12T11:38:30.884Z,8.00
2018-05-12T11:41:03.418Z,7.53
2018-05-12T11:43:35.928Z,7.57
2018-05-12T11:46:08.562Z,7.43
2018-05-12T11:48:41.072Z,6.55
2018-05-12T11:51:13.588Z,5.65
2018-05-12T11:53:46.108Z,8.55
2018-05-12T11:56:18.628Z,7.07
2018-05-12T11:58:51.158Z,6.30
2018-05-12T12:01:23.702Z,6.47
2018-05-12T12:03:56.200Z,5.87
2018-05-12T12:06:28.876Z,5.50
2018-05-12T12:09:01.387Z,6.68
2018-05-12T12:11:34.043Z,6.97
2018-05-12T12:14:06.543Z,5.32
2018-05-12T12:16:39.093Z,6.95
2018-05-12T12:19:11.605Z,11.88
2018-05-12T12:21:44.129Z,5.95
2018-05-12T12:24:16.640Z,6.50
2018-05-12T12:26:49.168Z,6.03
2018-05-12T12:29:21.696Z,7.65
2018-05-12T12:31:54.207Z,6.57
2018-05-12T12:34:26.741Z,6.25
2018-05-12T12:36:59.237Z,6.97
2018-05-12T12:39:31.805Z,7.00
2018-05-12T12:42:04.299Z,7.03
2018-05-12T12:44:36.813Z,7.30
2018-05-12T12:47:09.323Z,10.80
2018-05-12T12:49:41.854Z,8.80
2018-05-12T12:52:14.361Z,5.95
2018-05-12T12:54:46.886Z,12.85
2018-05-12T12:57:19.394Z,4.70
2018-05-12T12:59:51.917Z,6.40
2018-05-12T13:02:24.438Z,6.07
2018-05-12T13:04:57.115Z,6.07
2018-05-12T13:07:29.555Z,6.43
2018-05-12T13:10:02.116Z,7.57
2018-05-12T13:12:34.633Z,4.78
2018-05-12T13:15:07.237Z,4.47
2018-05-12T13:17:39.684Z,4.80
2018-05-12T13:20:12.210Z,6.53
2018-05-12T13:22:46.200Z,4.97
2018-05-12T13:25:18.718Z,4.80
2018-05-12T13:27:51.261Z,4.85
2018-05-12T13:30:23.771Z,4.90
2018-05-12T13:32:56.419Z,6.50
2018-05-12T13:35:28.941Z,5.05
2018-05-12T13:38:01.488Z,6.75
2018-05-12T13:40:34.148Z,4.45
2018-05-12T13:43:06.689Z,5.05
2018-05-12T13:45:39.213Z,4.35
2018-05-12T13:48:11.729Z,4.35
2018-05-12T13:50:44.245Z,4.65
2018-05-12T13:53:16.750Z,5.93
2018-05-12T13:55:49.370Z,4.57
2018-05-12T13:58:21.796Z,4.65
2018-05-12T14:00:54.322Z,4.25
2018-05-12T14:03:26.810Z,4.15
2018-05-12T14:05:59.322Z,3.97
2018-05-12T14:08:31.860Z,3.95
2018-05-12T14:11:04.381Z,4.32
2018-05-12T14:13:36.876Z,4.30
2018-05-12T14:16:09.473Z,6.07
2018-05-12T14:18:41.923Z,4.65
2018-05-12T14:21:14.435Z,5.28
2018-05-12T14:23:46.925Z,5.07
2018-05-12T14:26:19.449Z,3.92
2018-05-12T14:28:51.962Z,4.20
2018-05-12T14:31:24.490Z,4.97
2018-05-12T14:33:57.009Z,4.30
2018-05-12T14:36:29.526Z,3.83
2018-05-12T14:39:02.034Z,4.00
2018-05-12T14:41:34.548Z,4.05
2018-05-12T14:44:07.038Z,4.53
2018-05-12T14:46:39.552Z,4.10
2018-05-12T14:49:12.054Z,4.47
2018-05-12T14:51:44.572Z,4.68
2018-05-12T14:54:17.076Z,4.40
2018-05-12T14:56:49.602Z,4.20
2018-05-12T14:59:22.109Z,4.37
2018-05-12T15:01:54.618Z,4.57
2018-05-12T15:04:27.128Z,6.25
2018-05-12T15:06:59.656Z,5.03
2018-05-12T15:09:32.161Z,4.40
2018-05-12T15:12:04.711Z,5.32
2018-05-12T15:14:37.199Z,5.12
2018-05-12T15:17:09.724Z,6.45
2018-05-12T15:19:42.226Z,4.53
2018-05-12T15:22:14.742Z,3.58
2018-05-12T15:24:47.239Z,5.45
2018-05-12T15:27:19.759Z,4.80
2018-05-12T15:29:52.258Z,4.18
2018-05-12T15:32:24.780Z,5.10
2018-05-12T15:34:57.315Z,4.75
2018-05-12T15:37:29.831Z,5.53
2018-05-12T15:40:02.342Z,5.32
2018-05-12T15:42:34.868Z,5.95
2018-05-12T15:45:07.366Z,5.35
2018-05-12T15:47:39.898Z,6.05
2018-05-12T15:50:12.387Z,6.12
2018-05-12T15:52:44.900Z,5.18
2018-05-12T15:55:18.408Z,5.00
2018-05-12T15:57:50.925Z,5.15
2018-05-12T16:00:23.432Z,5.70
2018-05-12T16:02:55.974Z,5.70
2018-05-12T16:05:28.488Z,4.97
2018-05-12T16:08:01.004Z,5.37
2018-05-12T16:10:33.532Z,5.07
2018-05-12T16:13:06.036Z,5.43
2018-05-12T16:15:38.560Z,5.28
2018-05-12T16:18:11.057Z,5.50
2018-05-12T16:20:43.574Z,5.00
2018-05-12T16:23:16.069Z,7.03
2018-05-12T16:25:48.615Z,5.28
2018-05-12T16:28:21.123Z,6.03
2018-05-12T16:30:53.660Z,5.70
2018-05-12T16:33:26.164Z,6.70
2018-05-12T16:35:58.676Z,4.60
2018-05-12T16:38:31.229Z,6.55
2018-05-12T16:41:03.753Z,5.68
2018-05-12T16:43:36.249Z,6.25
2018-05-12T16:46:08.765Z,5.85
2018-05-12T16:51:19.466Z,38.25
2018-05-12T16:53:51.968Z,6.80
2018-05-12T16:56:24.492Z,6.03
2018-05-12T16:58:57.031Z,23.57
2018-05-12T17:01:29.544Z,6.20
2018-05-12T17:04:02.755Z,6.68
2018-05-12T17:06:35.302Z,7.37
2018-05-12T17:09:07.809Z,5.47
2018-05-12T17:11:40.835Z,6.30
2018-05-12T17:14:13.329Z,5.80
2018-05-12T17:16:45.883Z,5.87
2018-05-12T17:19:18.385Z,6.12
2018-05-12T17:21:50.897Z,6.18
2018-05-12T17:24:23.405Z,5.65
2018-05-12T17:26:55.919Z,5.03
2018-05-12T17:29:28.429Z,4.90
2018-05-12T17:32:00.950Z,6.18
2018-05-12T17:34:35.772Z,6.15
2018-05-12T17:37:08.293Z,4.90
2018-05-12T17:39:41.296Z,5.57
2018-05-12T17:42:13.846Z,5.80
2018-05-12T17:44:46.350Z,5.22
2018-05-12T17:47:18.869Z,5.25
2018-05-12T17:49:51.367Z,5.72
2018-05-12T17:52:23.912Z,5.72
2018-05-12T17:54:56.416Z,5.65
2018-05-12T17:57:28.965Z,5.93
2018-05-12T18:00:01.470Z,5.15
2018-05-12T18:02:33.992Z,6.62
2018-05-12T18:05:06.556Z,8.80
2018-05-12T18:07:39.094Z,5.32
2018-05-12T18:10:11.617Z,4.80
2018-05-12T18:12:44.146Z,4.75
2018-05-12T18:15:16.653Z,4.55
2018-05-12T18:17:49.171Z,6.10
2018-05-12T18:20:21.678Z,7.15
2018-05-12T18:22:54.188Z,5.30
2018-05-12T18:25:26.702Z,4.68
2018-05-12T18:27:59.267Z,5.72
2018-05-12T18:30:31.785Z,5.40
2018-05-12T18:33:04.304Z,6.55
2018-05-12T18:35:36.831Z,5.15
2018-05-12T18:38:09.361Z,5.15
2018-05-12T18:40:41.878Z,5.55
2018-05-12T18:43:14.407Z,5.68
2018-05-12T18:45:46.912Z,5.78
2018-05-12T18:48:20.009Z,5.78
2018-05-12T18:50:52.517Z,6.50
2018-05-12T18:53:25.035Z,7.75
2018-05-12T18:55:57.546Z,6.40
2018-05-12T18:58:30.133Z,7.05
2018-05-12T19:01:04.288Z,6.65
2018-05-12T19:03:36.837Z,7.22
2018-05-12T19:06:10.093Z,6.72
2018-05-12T19:08:51.647Z,7.85
2018-05-12T19:11:24.768Z,6.43
2018-05-12T19:13:57.288Z,7.00
2018-05-12T19:16:29.789Z,6.72
2018-05-12T19:19:02.311Z,7.03
2018-05-12T19:21:35.423Z,7.53
2018-05-12T19:24:07.949Z,7.50
2018-05-12T19:26:40.542Z,7.20
2018-05-12T19:29:13.110Z,6.87
2018-05-12T19:31:45.635Z,7.85
2018-05-12T19:34:18.130Z,6.25
2018-05-12T19:36:50.655Z,6.72
2018-05-12T19:39:23.178Z,9.10
2018-05-12T19:41:55.716Z,6.90
2018-05-12T19:44:28.573Z,7.30
2018-05-12T19:47:01.120Z,6.72
2018-05-12T19:49:33.707Z,7.40
2018-05-12T19:52:06.382Z,6.45
2018-05-12T19:54:38.880Z,8.02
2018-05-12T19:57:11.398Z,6.53
2018-05-12T19:59:43.902Z,6.47
2018-05-12T20:02:16.474Z,7.25
2018-05-12T20:04:49.017Z,6.62
2018-05-12T20:07:21.557Z,7.85
2018-05-12T20:09:55.030Z,7.80
2018-05-12T20:12:27.537Z,7.28
2018-05-12T20:15:00.041Z,8.13
2018-05-12T20:17:32.550Z,7.47
2018-05-12T20:20:05.075Z,9.00
2018-05-12T20:22:37.606Z,8.73
2018-05-12T20:25:10.114Z,8.82
2018-05-12T20:27:42.648Z,9.27
2018-05-12T20:30:15.145Z,9.20
2018-05-12T20:32:47.667Z,10.73
2018-05-12T20:35:20.176Z,10.32
2018-05-12T20:37:52.708Z,10.68
2018-05-12T20:40:25.228Z,10.30
2018-05-12T20:42:57.756Z,12.20
2018-05-12T20:45:30.269Z,11.05
2018-05-12T20:48:02.801Z,13.45
2018-05-12T20:50:35.340Z,13.02
2018-05-12T20:53:07.873Z,13.15
2018-05-12T20:58:19.270Z,14.35
2018-05-12T21:00:51.795Z,13.15
2018-05-12T21:03:24.398Z,14.38
2018-05-12T21:05:58.312Z,15.73
2018-05-12T21:08:31.987Z,14.35
2018-05-12T21:11:05.830Z,15.88
2018-05-12T21:13:38.741Z,16.52
2018-05-12T21:16:11.999Z,15.82
2018-05-12T21:18:46.397Z,15.63
2018-05-12T21:21:19.301Z,16.73
2018-05-12T21:23:52.462Z,16.92
2018-05-12T21:26:25.374Z,16.77
2018-05-12T21:28:58.413Z,18.15
2018-05-12T21:31:32.243Z,19.10
2018-05-12T21:34:05.164Z,18.12
2018-05-12T21:36:38.670Z,18.67
2018-05-12T21:39:12.457Z,19.20
2018-05-12T21:41:45.277Z,19.10
2018-05-12T21:44:18.782Z,18.98
2018-05-12T21:46:51.852Z,21.42
2018-05-12T21:49:24.726Z,19.40
2018-05-12T21:51:57.694Z,20.33
2018-05-12T21:54:30.837Z,20.35
2018-05-12T21:57:03.732Z,21.37
2018-05-12T21:59:37.454Z,21.58
2018-05-12T22:02:10.317Z,22.13
2018-05-12T22:04:44.520Z,20.12
2018-05-12T22:07:17.561Z,19.37
2018-05-12T22:09:53.050Z,19.42
2018-05-12T22:12:25.975Z,19.92
2018-05-12T22:14:58.744Z,20.33
2018-05-12T22:17:31.259Z,20.65
2018-05-12T22:20:04.153Z,19.33
2018-05-12T22:22:37.156Z,20.58
2018-05-12T22:25:10.205Z,21.40
2018-05-12T22:27:43.830Z,21.17
2018-05-12T22:30:16.753Z,25.60
2018-05-12T22:32:49.779Z,20.25
2018-05-12T22:35:23.586Z,20.60
2018-05-12T22:37:57.620Z,19.92
2018-05-12T22:40:34.455Z,20.37
2018-05-12T22:43:08.048Z,21.20
2018-05-12T22:45:40.697Z,21.67
2018-05-12T22:48:13.281Z,21.27
2018-05-12T22:50:45.832Z,21.70
2018-05-12T22:53:18.449Z,21.20
2018-05-12T22:55:51.012Z,21.35
2018-05-12T22:58:23.667Z,21.55
2018-05-12T23:00:56.277Z,22.58
2018-05-12T23:03:28.948Z,22.83
2018-05-12T23:06:01.454Z,20.62
2018-05-12T23:08:34.012Z,22.08
2018-05-12T23:11:06.532Z,22.37
2018-05-12T23:13:39.116Z,22.92
2018-05-12T23:16:11.711Z,22.55
2018-05-12T23:18:44.404Z,22.60
2018-05-12T23:21:16.909Z,22.83
2018-05-12T23:23:49.441Z,22.23
2018-05-12T23:26:21.948Z,22.95
2018-05-12T23:28:54.477Z,21.70
2018-05-12T23:31:26.985Z,21.92
2018-05-12T23:33:59.517Z,23.87
2018-05-12T23:36:32.033Z,24.08
2018-05-12T23:39:04.582Z,22.60
2018-05-12T23:41:37.145Z,23.73
2018-05-12T23:44:09.685Z,22.33
2018-05-12T23:46:42.443Z,23.62
2018-05-12T23:49:14.979Z,22.92
2018-05-12T23:51:47.488Z,23.10
2018-05-12T23:54:20.018Z,23.17
2018-05-12T23:56:52.524Z,23.65
2018-05-12T23:59:25.053Z,25.40
